DAL8976 SAZN-SAWH
Flight info
| Callsign | DAL8976 |
|---|---|
| Flight time | 2h 21m |
| Altitude | 41000 |
| Route | ILTOS3C ILTOS DCT SIMOT UT105 CRV UW45 GRA DCT DABLI DABLI1Q |
| Aircraft | A359/H-SDE2E3GHIJ3J4J5LM1ORWXY/LB1D1 |
Departure
| Time | 2026-04-27 10:55 |
|---|---|
| Airport | Presidente Perón International Airport (SAZN) |
Arrival
| Time | 2026-04-27 13:16 |
|---|---|
| Airport | Ushuaia - Malvinas Argentinas International Airport (SAWH) |
| Time | Latitude | Longitude | Altitude | Speed | Heading |
|---|---|---|---|---|---|
| 2026-04-27 10:41 | -38.95145 | -68.13990 | 900 ft | 0 kts | 288° |
| 2026-04-27 10:49 | -38.95146 | -68.13987 | 900 ft | 1 kts | 288° |
| 2026-04-27 10:49 | -38.95150 | -68.13971 | 900 ft | 3 kts | 288° |
| 2026-04-27 10:53 | -38.95129 | -68.14000 | 900 ft | 10 kts | 326° |
| 2026-04-27 10:54 | -38.95062 | -68.13995 | 900 ft | 11 kts | 356° |
| 2026-04-27 10:54 | -38.94996 | -68.14049 | 901 ft | 13 kts | 317° |
| 2026-04-27 10:54 | -38.94931 | -68.14130 | 902 ft | 13 kts | 314° |
| 2026-04-27 10:54 | -38.94905 | -68.14257 | 902 ft | 23 kts | 271° |
| 2026-04-27 10:55 | -38.94904 | -68.14900 | 900 ft | 121 kts | 270° |
| 2026-04-27 10:55 | -38.94908 | -68.16328 | 1142 ft | 186 kts | 269° |
| 2026-04-27 10:55 | -38.94941 | -68.18106 | 2121 ft | 208 kts | 272° |
| 2026-04-27 10:55 | -38.94926 | -68.20059 | 2894 ft | 221 kts | 272° |
| 2026-04-27 10:56 | -38.94905 | -68.22017 | 3789 ft | 216 kts | 272° |
| 2026-04-27 10:56 | -38.94894 | -68.23936 | 4618 ft | 214 kts | 269° |
| 2026-04-27 10:56 | -38.95163 | -68.25805 | 5354 ft | 214 kts | 246° |
| 2026-04-27 10:56 | -38.96117 | -68.27258 | 6060 ft | 218 kts | 215° |
| 2026-04-27 10:57 | -38.97573 | -68.27797 | 6767 ft | 225 kts | 183° |
| 2026-04-27 10:57 | -38.99134 | -68.27449 | 7429 ft | 231 kts | 170° |
| 2026-04-27 10:57 | -39.00675 | -68.26879 | 8046 ft | 235 kts | 169° |
| 2026-04-27 10:57 | -39.02251 | -68.26281 | 8698 ft | 237 kts | 169° |
| 2026-04-27 10:58 | -39.03842 | -68.25691 | 9372 ft | 239 kts | 170° |
| 2026-04-27 10:58 | -39.05447 | -68.25108 | 10050 ft | 241 kts | 170° |
| 2026-04-27 10:58 | -39.07066 | -68.24526 | 10655 ft | 242 kts | 171° |
| 2026-04-27 10:58 | -39.08697 | -68.23944 | 11269 ft | 244 kts | 171° |
| 2026-04-27 10:59 | -39.10340 | -68.23360 | 11869 ft | 246 kts | 171° |
| 2026-04-27 10:59 | -39.11994 | -68.22773 | 12490 ft | 247 kts | 171° |
| 2026-04-27 10:59 | -39.13660 | -68.22182 | 13102 ft | 249 kts | 171° |
| 2026-04-27 11:00 | -39.17028 | -68.20987 | 14265 ft | 253 kts | 172° |
| 2026-04-27 11:00 | -39.18736 | -68.20382 | 14789 ft | 256 kts | 172° |
| 2026-04-27 11:00 | -39.20461 | -68.19770 | 15316 ft | 258 kts | 172° |
| 2026-04-27 11:00 | -39.22205 | -68.19152 | 15779 ft | 265 kts | 172° |
| 2026-04-27 11:01 | -39.24034 | -68.18510 | 16010 ft | 280 kts | 172° |
| 2026-04-27 11:01 | -39.25973 | -68.17827 | 16241 ft | 296 kts | 171° |
| 2026-04-27 11:01 | -39.27983 | -68.17115 | 16442 ft | 310 kts | 171° |
| 2026-04-27 11:01 | -39.30111 | -68.16358 | 16654 ft | 324 kts | 171° |
| 2026-04-27 11:02 | -39.32357 | -68.15557 | 16874 ft | 337 kts | 171° |
| 2026-04-27 11:02 | -39.34629 | -68.14745 | 17069 ft | 349 kts | 170° |
| 2026-04-27 11:02 | -39.37008 | -68.13895 | 17266 ft | 360 kts | 170° |
| 2026-04-27 11:02 | -39.39462 | -68.13017 | 17487 ft | 370 kts | 170° |
| 2026-04-27 11:03 | -39.41956 | -68.12123 | 17847 ft | 374 kts | 170° |
| 2026-04-27 11:03 | -39.44481 | -68.11289 | 18260 ft | 374 kts | 174° |
| 2026-04-27 11:03 | -39.47049 | -68.10782 | 18705 ft | 373 kts | 178° |
| 2026-04-27 11:03 | -39.49637 | -68.10454 | 19106 ft | 373 kts | 181° |
| 2026-04-27 11:04 | -39.52234 | -68.10219 | 19496 ft | 374 kts | 181° |
| 2026-04-27 11:04 | -39.54840 | -68.10018 | 19886 ft | 376 kts | 182° |
| 2026-04-27 11:04 | -39.57459 | -68.09819 | 20268 ft | 378 kts | 182° |
| 2026-04-27 11:04 | -39.60088 | -68.09608 | 20654 ft | 379 kts | 182° |
| 2026-04-27 11:05 | -39.62730 | -68.09382 | 21030 ft | 381 kts | 181° |
| 2026-04-27 11:05 | -39.65356 | -68.09146 | 21410 ft | 383 kts | 181° |
| 2026-04-27 11:05 | -39.68030 | -68.08900 | 21733 ft | 386 kts | 181° |
| 2026-04-27 11:05 | -39.70716 | -68.08649 | 22097 ft | 388 kts | 181° |
| 2026-04-27 11:06 | -39.73412 | -68.08395 | 22452 ft | 390 kts | 181° |
| 2026-04-27 11:06 | -39.76130 | -68.08138 | 22829 ft | 391 kts | 181° |
| 2026-04-27 11:06 | -39.78849 | -68.07882 | 23175 ft | 393 kts | 181° |
| 2026-04-27 11:06 | -39.81583 | -68.07626 | 23525 ft | 395 kts | 181° |
| 2026-04-27 11:07 | -39.84336 | -68.07378 | 23842 ft | 396 kts | 182° |
| 2026-04-27 11:07 | -39.87095 | -68.07133 | 24157 ft | 398 kts | 182° |
| 2026-04-27 11:07 | -39.89864 | -68.06889 | 24462 ft | 399 kts | 182° |
| 2026-04-27 11:07 | -39.92642 | -68.06643 | 24759 ft | 400 kts | 182° |
| 2026-04-27 11:08 | -39.95427 | -68.06397 | 25049 ft | 402 kts | 182° |
| 2026-04-27 11:08 | -39.98222 | -68.06149 | 25356 ft | 403 kts | 182° |
| 2026-04-27 11:08 | -40.00992 | -68.05903 | 25644 ft | 405 kts | 182° |
| 2026-04-27 11:08 | -40.03809 | -68.05652 | 25950 ft | 406 kts | 182° |
| 2026-04-27 11:09 | -40.06633 | -68.05400 | 26271 ft | 408 kts | 182° |
| 2026-04-27 11:09 | -40.09473 | -68.05147 | 26576 ft | 410 kts | 182° |
| 2026-04-27 11:09 | -40.12331 | -68.04893 | 26890 ft | 412 kts | 182° |
| 2026-04-27 11:09 | -40.15200 | -68.04636 | 27233 ft | 414 kts | 182° |
| 2026-04-27 11:10 | -40.18084 | -68.04378 | 27589 ft | 416 kts | 182° |
| 2026-04-27 11:10 | -40.20973 | -68.04119 | 27953 ft | 418 kts | 183° |
| 2026-04-27 11:10 | -40.23881 | -68.03859 | 28312 ft | 420 kts | 183° |
| 2026-04-27 11:10 | -40.26808 | -68.03596 | 28705 ft | 422 kts | 183° |
| 2026-04-27 11:11 | -40.29745 | -68.03333 | 29056 ft | 425 kts | 183° |
| 2026-04-27 11:11 | -40.32706 | -68.03067 | 29412 ft | 427 kts | 183° |
| 2026-04-27 11:11 | -40.35686 | -68.02798 | 29800 ft | 430 kts | 183° |
| 2026-04-27 11:11 | -40.38632 | -68.02532 | 30180 ft | 432 kts | 183° |
| 2026-04-27 11:12 | -40.41641 | -68.02257 | 30529 ft | 435 kts | 182° |
| 2026-04-27 11:12 | -40.44663 | -68.01949 | 30913 ft | 436 kts | 182° |
| 2026-04-27 11:12 | -40.47700 | -68.01619 | 31311 ft | 437 kts | 182° |
| 2026-04-27 11:12 | -40.50735 | -68.01283 | 31674 ft | 439 kts | 182° |
| 2026-04-27 11:13 | -40.53782 | -68.00949 | 32016 ft | 440 kts | 182° |
| 2026-04-27 11:13 | -40.56839 | -68.00617 | 32348 ft | 442 kts | 182° |
| 2026-04-27 11:13 | -40.59914 | -68.00286 | 32670 ft | 443 kts | 182° |
| 2026-04-27 11:13 | -40.62991 | -67.99957 | 32996 ft | 444 kts | 182° |
| 2026-04-27 11:14 | -40.66083 | -67.99628 | 33288 ft | 446 kts | 182° |
| 2026-04-27 11:14 | -40.69178 | -67.99298 | 33631 ft | 447 kts | 182° |
| 2026-04-27 11:14 | -40.72275 | -67.98965 | 34072 ft | 445 kts | 182° |
| 2026-04-27 11:14 | -40.75354 | -67.98601 | 34491 ft | 443 kts | 181° |
| 2026-04-27 11:15 | -40.78420 | -67.98214 | 34837 ft | 443 kts | 181° |
| 2026-04-27 11:15 | -40.81452 | -67.97826 | 35154 ft | 443 kts | 181° |
| 2026-04-27 11:15 | -40.84524 | -67.97433 | 35489 ft | 442 kts | 181° |
| 2026-04-27 11:15 | -40.87587 | -67.97044 | 35867 ft | 442 kts | 181° |
| 2026-04-27 11:16 | -40.90647 | -67.96660 | 36192 ft | 442 kts | 181° |
| 2026-04-27 11:16 | -40.93707 | -67.96279 | 36498 ft | 442 kts | 181° |
| 2026-04-27 11:16 | -40.96765 | -67.95900 | 36819 ft | 441 kts | 181° |
| 2026-04-27 11:16 | -40.99826 | -67.95520 | 37131 ft | 441 kts | 181° |
| 2026-04-27 11:17 | -41.02884 | -67.95141 | 37440 ft | 441 kts | 181° |
| 2026-04-27 11:17 | -41.05942 | -67.94761 | 37749 ft | 440 kts | 181° |
| 2026-04-27 11:17 | -41.08991 | -67.94382 | 38047 ft | 440 kts | 181° |
| 2026-04-27 11:17 | -41.12037 | -67.94007 | 38343 ft | 439 kts | 181° |
| 2026-04-27 11:18 | -41.15086 | -67.93646 | 38633 ft | 439 kts | 181° |
| 2026-04-27 11:18 | -41.18128 | -67.93291 | 38889 ft | 439 kts | 181° |
| 2026-04-27 11:18 | -41.21130 | -67.92943 | 39075 ft | 439 kts | 181° |
| 2026-04-27 11:18 | -41.24181 | -67.92590 | 39242 ft | 440 kts | 181° |
| 2026-04-27 11:19 | -41.27234 | -67.92235 | 39418 ft | 441 kts | 180° |
| 2026-04-27 11:19 | -41.30295 | -67.91878 | 39544 ft | 442 kts | 180° |
| 2026-04-27 11:19 | -41.33367 | -67.91518 | 39692 ft | 443 kts | 180° |
| 2026-04-27 11:19 | -41.36435 | -67.91156 | 39849 ft | 444 kts | 180° |
| 2026-04-27 11:20 | -41.39515 | -67.90793 | 40000 ft | 444 kts | 180° |
| 2026-04-27 11:20 | -41.42602 | -67.90428 | 40146 ft | 445 kts | 180° |
| 2026-04-27 11:20 | -41.45688 | -67.90063 | 40335 ft | 445 kts | 180° |
| 2026-04-27 11:20 | -41.48788 | -67.89697 | 40448 ft | 447 kts | 180° |
| 2026-04-27 11:21 | -41.51888 | -67.89330 | 40588 ft | 448 kts | 180° |
| 2026-04-27 11:21 | -41.54996 | -67.88965 | 40733 ft | 448 kts | 180° |
| 2026-04-27 11:21 | -41.58103 | -67.88598 | 40874 ft | 449 kts | 180° |
| 2026-04-27 11:21 | -41.61177 | -67.88231 | 41011 ft | 449 kts | 180° |
| 2026-04-27 11:22 | -41.67420 | -67.87482 | 41116 ft | 450 kts | 180° |
| 2026-04-27 11:22 | -41.73674 | -67.86732 | 41103 ft | 451 kts | 180° |
| 2026-04-27 11:23 | -41.79922 | -67.85984 | 41102 ft | 451 kts | 180° |
| 2026-04-27 11:23 | -41.85123 | -67.85360 | 41106 ft | 451 kts | 180° |
| 2026-04-27 11:24 | -41.92389 | -67.84487 | 41089 ft | 451 kts | 180° |
| 2026-04-27 11:24 | -41.97596 | -67.83861 | 41086 ft | 451 kts | 180° |
| 2026-04-27 11:25 | -42.03849 | -67.83106 | 41094 ft | 451 kts | 180° |
| 2026-04-27 11:25 | -42.10102 | -67.82350 | 41078 ft | 451 kts | 180° |
| 2026-04-27 11:26 | -42.16354 | -67.81593 | 41075 ft | 451 kts | 180° |
| 2026-04-27 11:26 | -42.22606 | -67.80835 | 41085 ft | 451 kts | 180° |
| 2026-04-27 11:27 | -42.28866 | -67.80075 | 41064 ft | 452 kts | 180° |
| 2026-04-27 11:27 | -42.35143 | -67.79311 | 41058 ft | 452 kts | 180° |
| 2026-04-27 11:28 | -42.41376 | -67.78565 | 41067 ft | 452 kts | 180° |
| 2026-04-27 11:28 | -42.47658 | -67.77835 | 41056 ft | 454 kts | 180° |
| 2026-04-27 11:29 | -42.53958 | -67.77104 | 41052 ft | 454 kts | 180° |
| 2026-04-27 11:29 | -42.60255 | -67.76368 | 41064 ft | 454 kts | 179° |
| 2026-04-27 11:30 | -42.66554 | -67.75630 | 41038 ft | 455 kts | 179° |
| 2026-04-27 11:30 | -42.72870 | -67.74887 | 41032 ft | 455 kts | 179° |
| 2026-04-27 11:31 | -42.79148 | -67.74146 | 41032 ft | 455 kts | 179° |
| 2026-04-27 11:31 | -42.85459 | -67.73402 | 41031 ft | 455 kts | 179° |
| 2026-04-27 11:32 | -42.91774 | -67.72655 | 41028 ft | 455 kts | 179° |
| 2026-04-27 11:32 | -42.98091 | -67.71906 | 41032 ft | 455 kts | 179° |
| 2026-04-27 11:33 | -43.04410 | -67.71157 | 41000 ft | 456 kts | 179° |
| 2026-04-27 11:33 | -43.10730 | -67.70405 | 41008 ft | 455 kts | 179° |
| 2026-04-27 11:34 | -43.17049 | -67.69657 | 41016 ft | 455 kts | 179° |
| 2026-04-27 11:34 | -43.23374 | -67.68898 | 41002 ft | 456 kts | 179° |
| 2026-04-27 11:35 | -43.29661 | -67.68142 | 41004 ft | 457 kts | 179° |
| 2026-04-27 11:35 | -43.35989 | -67.67381 | 41019 ft | 457 kts | 179° |
| 2026-04-27 11:36 | -43.42323 | -67.66618 | 41001 ft | 457 kts | 179° |
| 2026-04-27 11:36 | -43.48661 | -67.65854 | 41002 ft | 457 kts | 179° |
| 2026-04-27 11:37 | -43.55001 | -67.65088 | 41014 ft | 457 kts | 179° |
| 2026-04-27 11:37 | -43.61349 | -67.64320 | 40999 ft | 457 kts | 179° |
| 2026-04-27 11:38 | -43.67699 | -67.63549 | 40990 ft | 457 kts | 179° |
| 2026-04-27 11:38 | -43.73995 | -67.62783 | 41008 ft | 458 kts | 179° |
| 2026-04-27 11:39 | -43.80343 | -67.62010 | 40987 ft | 458 kts | 179° |
| 2026-04-27 11:39 | -43.86703 | -67.61241 | 40981 ft | 459 kts | 179° |
| 2026-04-27 11:40 | -43.93062 | -67.60458 | 40997 ft | 459 kts | 179° |
| 2026-04-27 11:40 | -43.99423 | -67.59674 | 40979 ft | 459 kts | 179° |
| 2026-04-27 11:41 | -44.05801 | -67.58889 | 40977 ft | 459 kts | 179° |
| 2026-04-27 11:41 | -44.12168 | -67.58103 | 40993 ft | 459 kts | 179° |
| 2026-04-27 11:42 | -44.18549 | -67.57316 | 40974 ft | 460 kts | 179° |
| 2026-04-27 11:42 | -44.24936 | -67.56525 | 40971 ft | 460 kts | 179° |
| 2026-04-27 11:43 | -44.31277 | -67.55738 | 40968 ft | 460 kts | 179° |
| 2026-04-27 11:43 | -44.37667 | -67.54944 | 40968 ft | 461 kts | 179° |
| 2026-04-27 11:44 | -44.44071 | -67.54146 | 40968 ft | 461 kts | 179° |
| 2026-04-27 11:44 | -44.50468 | -67.53347 | 40967 ft | 461 kts | 179° |
| 2026-04-27 11:45 | -44.55784 | -67.52681 | 40969 ft | 461 kts | 179° |
| 2026-04-27 11:45 | -44.63267 | -67.51743 | 40967 ft | 461 kts | 179° |
| 2026-04-27 11:46 | -44.69667 | -67.50939 | 40954 ft | 461 kts | 179° |
| 2026-04-27 11:46 | -44.76025 | -67.50138 | 40969 ft | 462 kts | 179° |
| 2026-04-27 11:47 | -44.82440 | -67.49328 | 40968 ft | 462 kts | 179° |
| 2026-04-27 11:47 | -44.88847 | -67.48519 | 40969 ft | 462 kts | 179° |
| 2026-04-27 11:48 | -44.95220 | -67.47712 | 40967 ft | 462 kts | 179° |
| 2026-04-27 11:48 | -45.01627 | -67.46897 | 40966 ft | 463 kts | 179° |
| 2026-04-27 11:49 | -45.08050 | -67.46078 | 40960 ft | 463 kts | 179° |
| 2026-04-27 11:49 | -45.14469 | -67.45259 | 40948 ft | 463 kts | 179° |
| 2026-04-27 11:50 | -45.20888 | -67.44437 | 40955 ft | 463 kts | 179° |
| 2026-04-27 11:50 | -45.27312 | -67.43614 | 40944 ft | 463 kts | 179° |
| 2026-04-27 11:51 | -45.33739 | -67.42788 | 40943 ft | 463 kts | 179° |
| 2026-04-27 11:52 | -45.43323 | -67.41554 | 40937 ft | 463 kts | 179° |
| 2026-04-27 11:52 | -45.49738 | -67.40726 | 40922 ft | 463 kts | 179° |
| 2026-04-27 11:53 | -45.56160 | -67.39895 | 40911 ft | 463 kts | 179° |
| 2026-04-27 11:53 | -45.62592 | -67.39063 | 40899 ft | 464 kts | 179° |
| 2026-04-27 11:54 | -45.69018 | -67.38225 | 40892 ft | 464 kts | 179° |
| 2026-04-27 11:54 | -45.75445 | -67.37411 | 40887 ft | 462 kts | 181° |
| 2026-04-27 11:55 | -45.81838 | -67.37671 | 40883 ft | 459 kts | 188° |
| 2026-04-27 11:55 | -45.88203 | -67.38358 | 40882 ft | 458 kts | 189° |
| 2026-04-27 11:56 | -45.94510 | -67.39120 | 40906 ft | 457 kts | 189° |
| 2026-04-27 11:56 | -46.00852 | -67.39885 | 40880 ft | 457 kts | 189° |
| 2026-04-27 11:57 | -46.07199 | -67.40639 | 40879 ft | 457 kts | 189° |
| 2026-04-27 11:57 | -46.13536 | -67.41388 | 40871 ft | 457 kts | 189° |
| 2026-04-27 11:58 | -46.19882 | -67.42138 | 40880 ft | 457 kts | 189° |
| 2026-04-27 11:58 | -46.26234 | -67.42891 | 40868 ft | 458 kts | 189° |
| 2026-04-27 11:59 | -46.32598 | -67.43648 | 40865 ft | 458 kts | 189° |
| 2026-04-27 11:59 | -46.38905 | -67.44399 | 40878 ft | 458 kts | 189° |
| 2026-04-27 12:00 | -46.45298 | -67.45163 | 40868 ft | 458 kts | 189° |
| 2026-04-27 12:00 | -46.51610 | -67.45919 | 40872 ft | 458 kts | 189° |
| 2026-04-27 12:01 | -46.57967 | -67.46682 | 40874 ft | 458 kts | 189° |
| 2026-04-27 12:01 | -46.64321 | -67.47447 | 40872 ft | 458 kts | 189° |
| 2026-04-27 12:02 | -46.70684 | -67.48214 | 40868 ft | 458 kts | 189° |
| 2026-04-27 12:02 | -46.77046 | -67.48982 | 40871 ft | 458 kts | 189° |
| 2026-04-27 12:03 | -46.83361 | -67.49747 | 40888 ft | 458 kts | 189° |
| 2026-04-27 12:03 | -46.89716 | -67.50519 | 40874 ft | 458 kts | 189° |
| 2026-04-27 12:04 | -46.96084 | -67.51294 | 40872 ft | 459 kts | 189° |
| 2026-04-27 12:04 | -47.02444 | -67.52070 | 40869 ft | 459 kts | 189° |
| 2026-04-27 12:05 | -47.08812 | -67.52848 | 40875 ft | 459 kts | 189° |
| 2026-04-27 12:05 | -47.15145 | -67.53625 | 40872 ft | 459 kts | 189° |
| 2026-04-27 12:06 | -47.21515 | -67.54409 | 40864 ft | 460 kts | 189° |
| 2026-04-27 12:06 | -47.27893 | -67.55194 | 40865 ft | 460 kts | 189° |
| 2026-04-27 12:07 | -47.34273 | -67.55982 | 40861 ft | 460 kts | 189° |
| 2026-04-27 12:07 | -47.40669 | -67.56774 | 40857 ft | 461 kts | 189° |
| 2026-04-27 12:08 | -47.47061 | -67.57566 | 40856 ft | 461 kts | 189° |
| 2026-04-27 12:08 | -47.53451 | -67.58361 | 40866 ft | 461 kts | 189° |
| 2026-04-27 12:09 | -47.59839 | -67.59157 | 40854 ft | 461 kts | 189° |
| 2026-04-27 12:09 | -47.66233 | -67.59957 | 40848 ft | 461 kts | 189° |
| 2026-04-27 12:10 | -47.72592 | -67.60754 | 40850 ft | 461 kts | 189° |
| 2026-04-27 12:10 | -47.79019 | -67.61561 | 40846 ft | 460 kts | 189° |
| 2026-04-27 12:11 | -47.84325 | -67.62229 | 40843 ft | 460 kts | 189° |
| 2026-04-27 12:11 | -47.91745 | -67.63166 | 40847 ft | 460 kts | 189° |
| 2026-04-27 12:12 | -47.98131 | -67.63974 | 40867 ft | 460 kts | 189° |
| 2026-04-27 12:12 | -48.04520 | -67.64785 | 40838 ft | 461 kts | 189° |
| 2026-04-27 12:13 | -48.09848 | -67.65462 | 40840 ft | 461 kts | 189° |
| 2026-04-27 12:13 | -48.16253 | -67.66278 | 40835 ft | 461 kts | 189° |
| 2026-04-27 12:14 | -48.22648 | -67.67095 | 40855 ft | 461 kts | 189° |
| 2026-04-27 12:14 | -48.29041 | -67.67915 | 40837 ft | 462 kts | 189° |
| 2026-04-27 12:15 | -48.35403 | -67.68732 | 40831 ft | 462 kts | 189° |
| 2026-04-27 12:15 | -48.41803 | -67.69555 | 40832 ft | 462 kts | 189° |
| 2026-04-27 12:16 | -48.48204 | -67.70381 | 40834 ft | 462 kts | 189° |
| 2026-04-27 12:16 | -48.54624 | -67.71213 | 40828 ft | 463 kts | 189° |
| 2026-04-27 12:17 | -48.61048 | -67.72046 | 40826 ft | 463 kts | 189° |
| 2026-04-27 12:17 | -48.67464 | -67.72880 | 40826 ft | 463 kts | 189° |
| 2026-04-27 12:18 | -48.73886 | -67.73718 | 40824 ft | 464 kts | 189° |
| 2026-04-27 12:18 | -48.80326 | -67.74560 | 40818 ft | 464 kts | 189° |
| 2026-04-27 12:19 | -48.86770 | -67.75404 | 40818 ft | 464 kts | 189° |
| 2026-04-27 12:19 | -48.93203 | -67.76249 | 40814 ft | 464 kts | 189° |
| 2026-04-27 12:20 | -48.99638 | -67.77097 | 40810 ft | 464 kts | 189° |
| 2026-04-27 12:20 | -49.06036 | -67.77942 | 40809 ft | 464 kts | 189° |
| 2026-04-27 12:21 | -49.12478 | -67.78795 | 40812 ft | 464 kts | 189° |
| 2026-04-27 12:21 | -49.18912 | -67.79652 | 39832 ft | 462 kts | 185° |
| 2026-04-27 12:21 | -49.22096 | -67.80076 | 40092 ft | 456 kts | 185° |
| 2026-04-27 12:22 | -49.25243 | -67.80495 | 40349 ft | 451 kts | 185° |
| 2026-04-27 12:22 | -49.28349 | -67.80909 | 40602 ft | 445 kts | 185° |
| 2026-04-27 12:22 | -49.31417 | -67.81147 | 40854 ft | 438 kts | 180° |
| 2026-04-27 12:22 | -49.34453 | -67.81166 | 40991 ft | 435 kts | 180° |
| 2026-04-27 12:23 | -49.37483 | -67.81143 | 41002 ft | 435 kts | 179° |
| 2026-04-27 12:23 | -49.43550 | -67.81026 | 41000 ft | 436 kts | 179° |
| 2026-04-27 12:24 | -49.49618 | -67.80885 | 41000 ft | 436 kts | 179° |
| 2026-04-27 12:24 | -49.55654 | -67.80750 | 41000 ft | 436 kts | 179° |
| 2026-04-27 12:25 | -49.61731 | -67.80621 | 41000 ft | 437 kts | 179° |
| 2026-04-27 12:25 | -49.67815 | -67.80494 | 41000 ft | 437 kts | 179° |
| 2026-04-27 12:26 | -49.73907 | -67.80379 | 41000 ft | 437 kts | 179° |
| 2026-04-27 12:26 | -49.79957 | -67.80302 | 41000 ft | 438 kts | 180° |
| 2026-04-27 12:27 | -49.86055 | -67.80230 | 41000 ft | 438 kts | 180° |
| 2026-04-27 12:27 | -49.92152 | -67.80153 | 41000 ft | 438 kts | 179° |
| 2026-04-27 12:28 | -49.98262 | -67.80073 | 41000 ft | 439 kts | 179° |
| 2026-04-27 12:28 | -50.04365 | -67.79993 | 41000 ft | 439 kts | 179° |
| 2026-04-27 12:29 | -50.10477 | -67.79913 | 41000 ft | 439 kts | 179° |
| 2026-04-27 12:29 | -50.16597 | -67.79832 | 41000 ft | 439 kts | 179° |
| 2026-04-27 12:30 | -50.22715 | -67.79751 | 41000 ft | 440 kts | 179° |
| 2026-04-27 12:30 | -50.28798 | -67.79671 | 41000 ft | 440 kts | 179° |
| 2026-04-27 12:31 | -50.34927 | -67.79587 | 42136 ft | 441 kts | 184° |
| 2026-04-27 12:31 | -50.38026 | -67.79546 | 41906 ft | 451 kts | 185° |
| 2026-04-27 12:31 | -50.41195 | -67.79512 | 41645 ft | 460 kts | 184° |
| 2026-04-27 12:31 | -50.44435 | -67.79476 | 41378 ft | 470 kts | 184° |
| 2026-04-27 12:32 | -50.47738 | -67.79437 | 41118 ft | 477 kts | 184° |
| 2026-04-27 12:32 | -50.51064 | -67.79390 | 40878 ft | 478 kts | 184° |
| 2026-04-27 12:32 | -50.54389 | -67.79339 | 40770 ft | 477 kts | 184° |
| 2026-04-27 12:33 | -50.61029 | -67.79239 | 40765 ft | 477 kts | 184° |
| 2026-04-27 12:33 | -50.67667 | -67.79147 | 40763 ft | 477 kts | 184° |
| 2026-04-27 12:34 | -50.74307 | -67.79057 | 40761 ft | 477 kts | 184° |
| 2026-04-27 12:34 | -50.80918 | -67.78968 | 40760 ft | 477 kts | 184° |
| 2026-04-27 12:35 | -50.87567 | -67.78878 | 40771 ft | 478 kts | 184° |
| 2026-04-27 12:35 | -50.94216 | -67.78788 | 40749 ft | 478 kts | 184° |
| 2026-04-27 12:36 | -51.00878 | -67.78698 | 40751 ft | 478 kts | 184° |
| 2026-04-27 12:36 | -51.07532 | -67.78606 | 40749 ft | 478 kts | 184° |
| 2026-04-27 12:37 | -51.14194 | -67.78515 | 40738 ft | 478 kts | 184° |
| 2026-04-27 12:37 | -51.20866 | -67.78423 | 40743 ft | 479 kts | 184° |
| 2026-04-27 12:38 | -51.27532 | -67.78331 | 40735 ft | 479 kts | 184° |
| 2026-04-27 12:38 | -51.34200 | -67.78238 | 40730 ft | 479 kts | 184° |
| 2026-04-27 12:39 | -51.40868 | -67.78146 | 40727 ft | 479 kts | 184° |
| 2026-04-27 12:39 | -51.47495 | -67.78054 | 40729 ft | 479 kts | 184° |
| 2026-04-27 12:40 | -51.54157 | -67.77961 | 40728 ft | 479 kts | 184° |
| 2026-04-27 12:40 | -51.60826 | -67.77868 | 40735 ft | 479 kts | 183° |
| 2026-04-27 12:41 | -51.67513 | -67.77774 | 40720 ft | 480 kts | 183° |
| 2026-04-27 12:41 | -51.74192 | -67.77680 | 40714 ft | 480 kts | 183° |
| 2026-04-27 12:42 | -51.80878 | -67.77585 | 40716 ft | 480 kts | 183° |
| 2026-04-27 12:42 | -51.87513 | -67.77490 | 40729 ft | 480 kts | 184° |
| 2026-04-27 12:43 | -51.94203 | -67.77395 | 40699 ft | 481 kts | 184° |
| 2026-04-27 12:43 | -52.00902 | -67.77300 | 40700 ft | 481 kts | 184° |
| 2026-04-27 12:44 | -52.07605 | -67.77203 | 40695 ft | 481 kts | 184° |
| 2026-04-27 12:44 | -52.14306 | -67.77107 | 40703 ft | 481 kts | 184° |
| 2026-04-27 12:45 | -52.21014 | -67.77011 | 40689 ft | 482 kts | 184° |
| 2026-04-27 12:45 | -52.27679 | -67.76916 | 40682 ft | 482 kts | 184° |
| 2026-04-27 12:46 | -52.34371 | -67.76818 | 40675 ft | 481 kts | 184° |
| 2026-04-27 12:46 | -52.41079 | -67.76721 | 40679 ft | 481 kts | 183° |
| 2026-04-27 12:47 | -52.47782 | -67.76624 | 40665 ft | 482 kts | 183° |
| 2026-04-27 12:47 | -52.54485 | -67.76527 | 40656 ft | 482 kts | 183° |
| 2026-04-27 12:48 | -52.61183 | -67.76429 | 40663 ft | 482 kts | 183° |
| 2026-04-27 12:48 | -52.67897 | -67.76330 | 40646 ft | 482 kts | 183° |
| 2026-04-27 12:49 | -52.74561 | -67.76231 | 40640 ft | 482 kts | 183° |
| 2026-04-27 12:49 | -52.81269 | -67.76123 | 40639 ft | 482 kts | 183° |
| 2026-04-27 12:50 | -52.87980 | -67.76016 | 40630 ft | 482 kts | 183° |
| 2026-04-27 12:50 | -52.94700 | -67.75908 | 40631 ft | 482 kts | 183° |
| 2026-04-27 12:51 | -53.01387 | -67.75800 | 40620 ft | 481 kts | 183° |
| 2026-04-27 12:51 | -53.08090 | -67.75692 | 40614 ft | 481 kts | 183° |
| 2026-04-27 12:52 | -53.14795 | -67.75585 | 40615 ft | 481 kts | 183° |
| 2026-04-27 12:52 | -53.21493 | -67.75478 | 40352 ft | 480 kts | 183° |
| 2026-04-27 12:52 | -53.24843 | -67.75424 | 40114 ft | 480 kts | 183° |
| 2026-04-27 12:53 | -53.31493 | -67.75316 | 39638 ft | 480 kts | 183° |
| 2026-04-27 12:53 | -53.34830 | -67.75262 | 39292 ft | 479 kts | 182° |
| 2026-04-27 12:53 | -53.38160 | -67.75207 | 38712 ft | 477 kts | 182° |
| 2026-04-27 12:54 | -53.41485 | -67.75153 | 38007 ft | 478 kts | 182° |
| 2026-04-27 12:54 | -53.44817 | -67.75098 | 37270 ft | 478 kts | 182° |
| 2026-04-27 12:54 | -53.48144 | -67.75042 | 36568 ft | 477 kts | 182° |
| 2026-04-27 12:54 | -53.51472 | -67.74985 | 35850 ft | 477 kts | 182° |
| 2026-04-27 12:55 | -53.54788 | -67.74928 | 35149 ft | 476 kts | 184° |
| 2026-04-27 12:55 | -53.58104 | -67.74871 | 34388 ft | 476 kts | 184° |
| 2026-04-27 12:55 | -53.61424 | -67.74817 | 33558 ft | 478 kts | 184° |
| 2026-04-27 12:55 | -53.64752 | -67.74765 | 32574 ft | 479 kts | 184° |
| 2026-04-27 12:56 | -53.68091 | -67.74713 | 31685 ft | 478 kts | 184° |
| 2026-04-27 12:56 | -53.71419 | -67.74660 | 30796 ft | 479 kts | 184° |
| 2026-04-27 12:56 | -53.74751 | -67.74608 | 29860 ft | 480 kts | 184° |
| 2026-04-27 12:56 | -53.78093 | -67.74554 | 28963 ft | 479 kts | 184° |
| 2026-04-27 12:57 | -53.81399 | -67.74320 | 28354 ft | 472 kts | 181° |
| 2026-04-27 12:57 | -53.84657 | -67.73923 | 27701 ft | 466 kts | 181° |
| 2026-04-27 12:57 | -53.87826 | -67.73537 | 27072 ft | 460 kts | 181° |
| 2026-04-27 12:57 | -53.91000 | -67.73169 | 26435 ft | 454 kts | 181° |
| 2026-04-27 12:58 | -53.94136 | -67.72818 | 25799 ft | 448 kts | 181° |
| 2026-04-27 12:58 | -53.97231 | -67.72479 | 25177 ft | 443 kts | 181° |
| 2026-04-27 12:58 | -54.00288 | -67.72147 | 24562 ft | 438 kts | 181° |
| 2026-04-27 12:58 | -54.03311 | -67.71821 | 23950 ft | 433 kts | 182° |
| 2026-04-27 12:59 | -54.06307 | -67.71498 | 23342 ft | 428 kts | 182° |
| 2026-04-27 12:59 | -54.09265 | -67.71180 | 22669 ft | 423 kts | 182° |
| 2026-04-27 12:59 | -54.11196 | -67.70972 | 22239 ft | 419 kts | 182° |
| 2026-04-27 12:59 | -54.14083 | -67.70660 | 21646 ft | 412 kts | 182° |
| 2026-04-27 13:00 | -54.16921 | -67.70354 | 21050 ft | 406 kts | 182° |
| 2026-04-27 13:00 | -54.20631 | -67.69954 | 20256 ft | 400 kts | 181° |
| 2026-04-27 13:00 | -54.23382 | -67.69657 | 19667 ft | 396 kts | 181° |
| 2026-04-27 13:00 | -54.25247 | -67.69458 | 19249 ft | 394 kts | 181° |
| 2026-04-27 13:01 | -54.27971 | -67.69164 | 18640 ft | 391 kts | 181° |
| 2026-04-27 13:01 | -54.30671 | -67.68872 | 18037 ft | 388 kts | 181° |
| 2026-04-27 13:01 | -54.33359 | -67.68581 | 17386 ft | 386 kts | 181° |
| 2026-04-27 13:01 | -54.35997 | -67.68292 | 16753 ft | 382 kts | 181° |
| 2026-04-27 13:02 | -54.38637 | -67.68004 | 16150 ft | 379 kts | 181° |
| 2026-04-27 13:02 | -54.41259 | -67.67719 | 15542 ft | 375 kts | 181° |
| 2026-04-27 13:02 | -54.43862 | -67.67435 | 14918 ft | 373 kts | 181° |
| 2026-04-27 13:02 | -54.46412 | -67.67156 | 14318 ft | 371 kts | 181° |
| 2026-04-27 13:03 | -54.49010 | -67.66873 | 13785 ft | 369 kts | 181° |
| 2026-04-27 13:03 | -54.51584 | -67.66597 | 13349 ft | 371 kts | 180° |
| 2026-04-27 13:03 | -54.54162 | -67.66316 | 12662 ft | 369 kts | 180° |
| 2026-04-27 13:03 | -54.56693 | -67.66030 | 12120 ft | 362 kts | 181° |
| 2026-04-27 13:04 | -54.59191 | -67.65750 | 11621 ft | 358 kts | 181° |
| 2026-04-27 13:04 | -54.61679 | -67.65474 | 11131 ft | 355 kts | 181° |
| 2026-04-27 13:04 | -54.64120 | -67.65202 | 10769 ft | 346 kts | 181° |
| 2026-04-27 13:04 | -54.66469 | -67.64935 | 10517 ft | 330 kts | 181° |
| 2026-04-27 13:05 | -54.68710 | -67.64684 | 10273 ft | 316 kts | 182° |
| 2026-04-27 13:05 | -54.70807 | -67.64437 | 9959 ft | 290 kts | 182° |
| 2026-04-27 13:05 | -54.72753 | -67.64209 | 9646 ft | 269 kts | 183° |
| 2026-04-27 13:05 | -54.74539 | -67.64001 | 9450 ft | 250 kts | 183° |
| 2026-04-27 13:06 | -54.76223 | -67.63823 | 9209 ft | 237 kts | 185° |
| 2026-04-27 13:06 | -54.77860 | -67.63701 | 8609 ft | 233 kts | 189° |
| 2026-04-27 13:06 | -54.79412 | -67.64188 | 8053 ft | 218 kts | 208° |
| 2026-04-27 13:06 | -54.80651 | -67.65476 | 7534 ft | 200 kts | 225° |
| 2026-04-27 13:07 | -54.81483 | -67.67343 | 7098 ft | 192 kts | 244° |
| 2026-04-27 13:07 | -54.81855 | -67.69435 | 6912 ft | 185 kts | 259° |
| 2026-04-27 13:07 | -54.81993 | -67.71654 | 6859 ft | 183 kts | 263° |
| 2026-04-27 13:07 | -54.82079 | -67.73808 | 6690 ft | 174 kts | 264° |
| 2026-04-27 13:08 | -54.82160 | -67.75911 | 6599 ft | 175 kts | 262° |
| 2026-04-27 13:08 | -54.82245 | -67.77990 | 6534 ft | 170 kts | 263° |
| 2026-04-27 13:08 | -54.82332 | -67.80000 | 6349 ft | 166 kts | 263° |
| 2026-04-27 13:08 | -54.82416 | -67.81977 | 6087 ft | 163 kts | 264° |
| 2026-04-27 13:09 | -54.82497 | -67.83906 | 5736 ft | 157 kts | 264° |
| 2026-04-27 13:09 | -54.82571 | -67.85800 | 5471 ft | 157 kts | 263° |
| 2026-04-27 13:09 | -54.82651 | -67.87647 | 5245 ft | 150 kts | 264° |
| 2026-04-27 13:09 | -54.82737 | -67.89444 | 5117 ft | 148 kts | 262° |
| 2026-04-27 13:10 | -54.82837 | -67.91139 | 5013 ft | 134 kts | 264° |
| 2026-04-27 13:10 | -54.82900 | -67.92687 | 4864 ft | 129 kts | 263° |
| 2026-04-27 13:10 | -54.82958 | -67.94256 | 4614 ft | 128 kts | 264° |
| 2026-04-27 13:10 | -54.83018 | -67.95770 | 4415 ft | 125 kts | 264° |
| 2026-04-27 13:11 | -54.83077 | -67.97262 | 4204 ft | 124 kts | 264° |
| 2026-04-27 13:11 | -54.83135 | -67.98762 | 3983 ft | 125 kts | 264° |
| 2026-04-27 13:11 | -54.83195 | -68.00283 | 3770 ft | 127 kts | 264° |
| 2026-04-27 13:11 | -54.83254 | -68.01814 | 3551 ft | 129 kts | 265° |
| 2026-04-27 13:12 | -54.83317 | -68.03419 | 3350 ft | 139 kts | 266° |
| 2026-04-27 13:12 | -54.83382 | -68.05110 | 3120 ft | 141 kts | 267° |
| 2026-04-27 13:12 | -54.83446 | -68.06777 | 2871 ft | 135 kts | 267° |
| 2026-04-27 13:12 | -54.83508 | -68.08380 | 2670 ft | 133 kts | 267° |
| 2026-04-27 13:13 | -54.83570 | -68.09965 | 2418 ft | 129 kts | 267° |
| 2026-04-27 13:13 | -54.83628 | -68.11479 | 2197 ft | 124 kts | 267° |
| 2026-04-27 13:13 | -54.83686 | -68.12972 | 1980 ft | 124 kts | 266° |
| 2026-04-27 13:13 | -54.83744 | -68.14465 | 1770 ft | 125 kts | 266° |
| 2026-04-27 13:14 | -54.83803 | -68.15974 | 1572 ft | 124 kts | 266° |
| 2026-04-27 13:14 | -54.83860 | -68.17458 | 1377 ft | 122 kts | 266° |
| 2026-04-27 13:14 | -54.83917 | -68.18923 | 1213 ft | 121 kts | 267° |
| 2026-04-27 13:14 | -54.83976 | -68.20387 | 1000 ft | 122 kts | 266° |
| 2026-04-27 13:15 | -54.84054 | -68.21853 | 758 ft | 121 kts | 267° |
| 2026-04-27 13:15 | -54.84114 | -68.23295 | 582 ft | 120 kts | 269° |
| 2026-04-27 13:15 | -54.84159 | -68.24756 | 368 ft | 120 kts | 269° |
| 2026-04-27 13:15 | -54.84214 | -68.26189 | 214 ft | 118 kts | 270° |
| 2026-04-27 13:16 | -54.84262 | -68.27575 | 125 ft | 116 kts | 270° |
| 2026-04-27 13:16 | -54.84307 | -68.28943 | 109 ft | 103 kts | 266° |
| 2026-04-27 13:16 | -54.84343 | -68.29899 | 112 ft | 60 kts | 266° |
| 2026-04-27 13:16 | -54.84369 | -68.30534 | 111 ft | 42 kts | 266° |
| 2026-04-27 13:17 | -54.84379 | -68.30861 | 139 ft | 18 kts | 274° |
| 2026-04-27 13:17 | -54.84302 | -68.30958 | 113 ft | 15 kts | 351° |
| 2026-04-27 13:17 | -54.84210 | -68.30975 | 114 ft | 13 kts | 355° |
| 2026-04-27 13:17 | -54.84119 | -68.31005 | 115 ft | 10 kts | 323° |
| 2026-04-27 13:18 | -54.84098 | -68.31103 | 113 ft | 10 kts | 277° |
| 2026-04-27 13:18 | -54.84059 | -68.31177 | 112 ft | 9 kts | 346° |
| 2026-04-27 13:18 | -54.84020 | -68.31186 | 114 ft | 0 kts | 354° |